Orbital elements of FENGYUN 1C DEB
| Launched | 9 May 1999 |
| Flight ended | – |
| Launch site | Taiyuan Space Center, PRC |
| Owner | People's Republic of China |
| NORAD ID | 30297 |
| Date fetched |
Epoch osculation |
Inc. [°] |
Ecc. | RA asc node [hr] |
Arg Peri. [°] |
Mean anom [°] |
Mean motion [rev/day] |
Abs. mag |
| Date fetched |
Epoch osculation |
Inc. [°] |
Ecc. | RA asc node [hr] |
Arg Peri. [°] |
Mean anom [°] |
Mean motion [rev/day] |
Abs. mag |
| 2026 May 05 17:57 | 2026 May 05 07:54:33 | 98.8259 | 0.03684 | 5.5088 | 59.7642 | 96.2759 | 14.25344 | – |
| 2026 May 04 17:57 | 2026 Apr 30 08:15:17 | 98.8243 | 0.03689 | 5.1736 | 74.1394 | 96.2759 | 14.25344 | – |
| 2026 May 03 17:57 | 2026 Apr 30 08:15:17 | 98.8243 | 0.03689 | 5.1736 | 74.1394 | 96.2759 | 14.25344 | – |
| 2026 May 02 17:57 | 2026 Apr 30 08:15:17 | 98.8243 | 0.03689 | 5.1736 | 74.1394 | 96.2759 | 14.25344 | – |
| 2026 May 01 17:56 | 2026 Apr 30 08:15:17 | 98.8243 | 0.03689 | 5.1736 | 74.1394 | 96.2759 | 14.25344 | – |
| 2026 Apr 30 17:56 | 2026 Apr 30 08:15:17 | 98.8243 | 0.03689 | 5.1736 | 74.1394 | 96.2759 | 14.25344 | – |
| 2026 Apr 29 17:57 | 2026 Apr 24 09:00:46 | 98.8241 | 0.03693 | 4.7725 | 91.3655 | 96.2759 | 14.25344 | – |
| 2026 Apr 28 17:56 | 2026 Apr 24 09:00:46 | 98.8241 | 0.03693 | 4.7725 | 91.3655 | 96.2759 | 14.25344 | – |
| 2026 Apr 27 17:58 | 2026 Apr 24 09:00:46 | 98.8241 | 0.03693 | 4.7725 | 91.3655 | 96.2759 | 14.25344 | – |
| 2026 Apr 26 17:58 | 2026 Apr 24 09:00:46 | 98.8241 | 0.03693 | 4.7725 | 91.3655 | 96.2759 | 14.25344 | – |
| 2026 Apr 25 17:58 | 2026 Apr 24 09:00:46 | 98.8241 | 0.03693 | 4.7725 | 91.3655 | 96.2759 | 14.25344 | – |
| 2026 Apr 24 17:59 | 2026 Apr 24 09:00:46 | 98.8241 | 0.03693 | 4.7725 | 91.3655 | 96.2759 | 14.25344 | – |
| 2026 Apr 23 17:57 | 2026 Apr 19 07:44:26 | 98.8242 | 0.03692 | 4.4330 | 105.9651 | 96.2759 | 14.25344 | – |
| 2026 Apr 22 17:57 | 2026 Apr 19 07:44:26 | 98.8242 | 0.03692 | 4.4330 | 105.9651 | 96.2759 | 14.25344 | – |
| 2026 Apr 21 17:57 | 2026 Apr 19 07:44:26 | 98.8242 | 0.03692 | 4.4330 | 105.9651 | 96.2759 | 14.25344 | – |
| 2026 Apr 20 17:57 | 2026 Apr 19 07:44:26 | 98.8242 | 0.03692 | 4.4330 | 105.9651 | 96.2759 | 14.25344 | – |
| 2026 Apr 19 17:58 | 2026 Apr 19 07:44:26 | 98.8242 | 0.03692 | 4.4330 | 105.9651 | 96.2759 | 14.25344 | – |
| 2026 Apr 18 17:56 | 2026 Apr 13 02:46:08 | 98.8228 | 0.03688 | 4.0161 | 123.9383 | 96.2759 | 14.25344 | – |
| 2026 Apr 16 17:57 | 2026 Apr 13 02:46:08 | 98.8228 | 0.03688 | 4.0161 | 123.9383 | 96.2759 | 14.25344 | – |
| 2026 Apr 14 17:57 | 2026 Apr 13 02:46:08 | 98.8228 | 0.03688 | 4.0161 | 123.9383 | 96.2759 | 14.25344 | – |
| 2026 Apr 13 17:57 | 2026 Apr 13 02:46:08 | 98.8228 | 0.03688 | 4.0161 | 123.9383 | 96.2759 | 14.25344 | – |
| 2026 Apr 12 17:57 | 2026 Apr 08 08:46:54 | 98.8232 | 0.03686 | 3.6971 | 137.6983 | 96.2759 | 14.25344 | – |
| 2026 Apr 11 17:57 | 2026 Apr 08 08:46:54 | 98.8232 | 0.03686 | 3.6971 | 137.6983 | 96.2759 | 14.25344 | – |
| 2026 Apr 10 17:58 | 2026 Apr 08 08:46:54 | 98.8232 | 0.03686 | 3.6971 | 137.6983 | 96.2759 | 14.25344 | – |
| 2026 Apr 09 18:01 | 2026 Apr 08 08:46:54 | 98.8232 | 0.03686 | 3.6971 | 137.6983 | 96.2759 | 14.25344 | – |
| 2026 Apr 08 17:57 | 2026 Apr 08 08:46:54 | 98.8232 | 0.03686 | 3.6971 | 137.6983 | 96.2759 | 14.25344 | – |